Main page
METAR-TAF:

METAR-TAF

Airports :

Tarbes–Lourdes–Pyrénées Airport

Tarbes Lourdes, France

latitude: 43-11N, longitude: 000-00W, elevation: 379 m

Current weather observation

The report was made 39 minutes ago, at 04:30 UTC
Wind 5 kt from the South
Temperature 5°C
Humidity 93%
Pressure 1007 hPa
Visibility 10 km or more
no clouds below 1500 m and no cumulonimbus

METAR: LFBT 080430Z AUTO 17005KT CAVOK 05/04 Q1007 TEMPO VV/// BECMG 4000 BR

Time: 06:09 (05:09 UTC)

Forecast

The report was made 6 hours and 9 minutes ago, at 23:00 UTC
Forecast valid from 08 at 00 UTC to 08 at 24 UTC
Wind 3 kt from variable directions
Visibility: 4000 m
mist
Temporary
from 08 at 00 UTC to 08 at 10 UTC
fog
Becoming
from 08 at 09 UTC to 08 at 11 UTC
Visibility 10 km or more
Broken clouds at a height of 9000 ft
Temporary
from 08 at 15 UTC to 08 at 24 UTC
light rain

TAF: LFBT 072300Z 0800/0824 VRB03KT 4000 BR NSC TEMPO 0800/0810 FG VV/// BECMG 0809/0811 9999 NSW BKN090 TEMPO 0815/0824 -RA

Weather observations and forecasts of more than 4000 airports (METAR and TAF reports).

The available stations are represented by yellow and red dots on the map.

Hover mouse over dot to see the name of the station.

Then click to see weather observations and forecasts.

To change the map : click on the green buttons with a black cross to zoom in, on the green button with a dash to zoom out, or on the green arrows for adjacent maps.


METAR-TAF: